createdAt,value
2019-02-08T00:00:58.276Z,20.72
2019-02-08T00:03:26.072Z,21.65
2019-02-08T00:05:55.586Z,20.45
2019-02-08T00:08:23.630Z,20.60
2019-02-08T00:10:51.569Z,22.13
2019-02-08T00:13:19.270Z,21.15
2019-02-08T00:15:47.978Z,22.27
2019-02-08T00:18:16.266Z,22.52
2019-02-08T00:20:44.263Z,24.05
2019-02-08T00:23:13.968Z,20.65
2019-02-08T00:25:44.008Z,21.27
2019-02-08T00:28:12.408Z,21.60
2019-02-08T00:30:40.100Z,19.73
2019-02-08T00:33:08.479Z,20.25
2019-02-08T00:35:36.715Z,19.65
2019-02-08T00:40:33.468Z,17.57
2019-02-08T00:43:01.480Z,17.48
2019-02-08T00:45:30.012Z,18.25
2019-02-08T00:47:58.408Z,16.97
2019-02-08T00:50:26.265Z,17.45
2019-02-08T00:52:54.851Z,15.95
2019-02-08T01:05:20.737Z,16.50
2019-02-08T01:12:58.860Z,16.15
2019-02-08T01:25:25.642Z,14.80
2019-02-08T01:27:56.886Z,15.48
2019-02-08T01:35:25.826Z,15.40
2019-02-08T01:47:50.856Z,14.00
2019-02-08T01:50:20.864Z,13.70
2019-02-08T01:54:53.851Z,14.23
2019-02-08T02:06:08.801Z,13.10
2019-02-08T02:08:48.965Z,13.08
2019-02-08T02:11:35.578Z,12.70
2019-02-08T02:14:03.356Z,12.30
2019-02-08T02:16:31.811Z,12.03
2019-02-08T02:19:00.612Z,11.40
2019-02-08T02:21:29.369Z,10.88
2019-02-08T02:23:58.826Z,12.13
2019-02-08T02:38:56.840Z,11.00
2019-02-08T02:43:55.773Z,10.93
2019-02-08T02:51:23.766Z,11.23
2019-02-08T02:53:53.784Z,10.50
2019-02-08T02:57:53.696Z,11.30
2019-02-08T03:00:35.373Z,10.47
2019-02-08T03:03:28.038Z,9.60
2019-02-08T03:08:29.795Z,10.50
2019-02-08T03:10:58.834Z,10.00
2019-02-08T03:13:29.608Z,10.65
2019-02-08T03:15:57.866Z,10.40
2019-02-08T03:18:27.572Z,9.90
2019-02-08T03:20:56.234Z,9.70
2019-02-08T03:23:28.342Z,10.50
2019-02-08T03:25:57.768Z,9.00
2019-02-08T03:28:26.824Z,9.47
2019-02-08T03:30:58.801Z,8.70
2019-02-08T03:33:28.747Z,8.40
2019-02-08T03:35:58.844Z,8.05
2019-02-08T03:43:28.334Z,8.37
2019-02-08T03:45:59.166Z,8.35
2019-02-08T03:56:10.742Z,8.60
2019-02-08T04:01:09.810Z,7.90
2019-02-08T04:13:49.034Z,7.65
2019-02-08T04:16:20.046Z,7.60
2019-02-08T04:18:53.155Z,7.90
2019-02-08T04:21:23.377Z,6.90
2019-02-08T04:28:08.751Z,8.20
2019-02-08T04:30:38.934Z,6.67
2019-02-08T04:33:08.682Z,8.10
2019-02-08T04:35:40.369Z,7.10
2019-02-08T04:38:10.832Z,7.70
2019-02-08T04:40:41.347Z,7.33
2019-02-08T04:43:09.806Z,6.65
2019-02-08T04:45:38.928Z,6.60
2019-02-08T04:48:08.872Z,7.30
2019-02-08T04:50:38.625Z,6.85
2019-02-08T04:53:08.334Z,7.10
2019-02-08T04:58:11.902Z,7.30
2019-02-08T05:00:43.194Z,6.57
2019-02-08T05:03:12.854Z,6.60
2019-02-08T05:05:42.546Z,6.53
2019-02-08T05:08:16.880Z,6.70
2019-02-08T05:10:45.788Z,6.50
2019-02-08T05:13:16.765Z,6.00
2019-02-08T05:15:45.662Z,5.80
2019-02-08T05:18:16.582Z,5.97
2019-02-08T05:20:47.874Z,4.90
2019-02-08T05:23:17.008Z,5.05
2019-02-08T05:30:43.826Z,5.60
2019-02-08T05:33:14.751Z,5.30
2019-02-08T05:35:43.850Z,5.00
2019-02-08T05:38:12.847Z,5.90
2019-02-08T05:40:41.967Z,5.30
2019-02-08T05:43:11.833Z,5.20
2019-02-08T05:46:08.927Z,5.40
2019-02-08T05:48:37.858Z,4.80
2019-02-08T05:51:06.838Z,5.25
2019-02-08T05:56:06.647Z,4.95
2019-02-08T06:01:06.337Z,5.45
2019-02-08T06:03:34.694Z,5.00
2019-02-08T06:06:04.787Z,5.00
2019-02-08T06:08:35.403Z,5.05
2019-02-08T06:11:06.863Z,5.10
2019-02-08T06:13:36.320Z,4.90
2019-02-08T06:16:06.624Z,4.45
2019-02-08T06:18:35.179Z,4.90
2019-02-08T06:23:33.604Z,4.78
2019-02-08T06:29:34.206Z,5.20
2019-02-08T06:32:06.868Z,4.75
2019-02-08T06:37:06.568Z,4.20
2019-02-08T06:39:37.397Z,4.80
2019-02-08T06:44:52.117Z,5.30
2019-02-08T06:47:20.782Z,5.10
2019-02-08T06:49:51.513Z,5.00
2019-02-08T06:54:51.921Z,4.80
2019-02-08T06:57:42.287Z,4.95
2019-02-08T07:00:23.112Z,4.30
2019-02-08T07:06:03.835Z,4.45
2019-02-08T07:08:55.765Z,4.20
2019-02-08T07:14:36.722Z,4.45
2019-02-08T07:17:23.841Z,4.67
2019-02-08T07:20:05.700Z,4.10
2019-02-08T07:23:46.822Z,4.00
2019-02-08T07:26:35.036Z,4.75
2019-02-08T07:29:15.817Z,4.00
2019-02-08T07:32:11.792Z,4.70
2019-02-08T07:35:03.823Z,4.35
2019-02-08T07:37:38.778Z,4.53
2019-02-08T07:43:28.274Z,4.45
2019-02-08T07:46:20.796Z,3.90
2019-02-08T07:49:20.822Z,4.63
2019-02-08T07:52:10.928Z,3.60
2019-02-08T07:55:01.940Z,4.40
2019-02-08T07:57:50.691Z,3.90
2019-02-08T08:00:30.713Z,3.93
2019-02-08T08:03:31.834Z,3.90
2019-02-08T08:09:09.789Z,3.80
2019-02-08T08:11:56.510Z,3.90
2019-02-08T08:14:44.077Z,3.60
2019-02-08T08:20:43.941Z,4.70
2019-02-08T08:23:39.375Z,3.80
2019-02-08T08:26:27.762Z,4.10
2019-02-08T08:29:20.759Z,3.80
2019-02-08T08:32:12.747Z,4.30
2019-02-08T08:35:43.385Z,4.00
2019-02-08T08:39:07.784Z,4.20
2019-02-08T08:45:28.075Z,3.90
2019-02-08T08:48:25.394Z,3.90
2019-02-08T08:51:34.799Z,4.35
2019-02-08T08:59:14.353Z,4.00
2019-02-08T09:05:34.846Z,3.80
2019-02-08T09:08:46.020Z,4.00
2019-02-08T09:12:17.951Z,3.33
2019-02-08T09:15:39.618Z,3.80
2019-02-08T09:19:02.810Z,3.50
2019-02-08T09:25:28.818Z,3.35
2019-02-08T09:28:24.804Z,3.10
2019-02-08T09:31:56.804Z,3.12
2019-02-08T09:35:26.830Z,2.60
2019-02-08T09:38:43.921Z,3.55
2019-02-08T09:42:09.737Z,3.40
2019-02-08T09:46:06.046Z,3.35
2019-02-08T09:49:37.948Z,3.10
2019-02-08T09:57:05.520Z,2.65
2019-02-08T10:03:54.772Z,2.90
2019-02-08T10:07:00.531Z,3.20
2019-02-08T10:10:28.980Z,2.90
2019-02-08T10:13:57.026Z,3.00
2019-02-08T10:17:26.306Z,3.25
2019-02-08T10:21:15.706Z,3.20
2019-02-08T10:25:16.854Z,2.80
2019-02-08T10:28:44.887Z,3.37
2019-02-08T10:32:31.874Z,2.90
2019-02-08T10:36:08.820Z,2.50
2019-02-08T10:43:03.768Z,3.10
2019-02-08T10:46:36.358Z,3.00
2019-02-08T10:50:14.236Z,3.10
2019-02-08T10:54:07.352Z,2.50
2019-02-08T10:57:27.672Z,2.50
2019-02-08T11:01:08.397Z,2.70
2019-02-08T11:07:51.838Z,2.47
2019-02-08T11:11:05.383Z,2.30
2019-02-08T11:14:17.736Z,3.00
2019-02-08T11:17:52.784Z,2.60
2019-02-08T11:20:22.589Z,2.40
2019-02-08T11:22:50.869Z,3.25
2019-02-08T11:25:19.744Z,2.80
2019-02-08T11:33:00.832Z,2.90
2019-02-08T11:35:30.758Z,2.40
2019-02-08T11:40:33.638Z,2.45
2019-02-08T11:43:04.046Z,2.70
2019-02-08T11:48:06.828Z,2.80
2019-02-08T11:50:37.679Z,2.80
2019-02-08T11:53:07.756Z,3.05
2019-02-08T12:09:50.891Z,2.75
2019-02-08T12:12:19.016Z,3.60
2019-02-08T12:14:49.638Z,2.80
2019-02-08T12:17:17.971Z,3.45
2019-02-08T12:19:47.906Z,3.10
2019-02-08T12:24:47.935Z,3.05
2019-02-08T12:27:17.742Z,3.40
2019-02-08T12:29:46.305Z,2.80
2019-02-08T12:32:16.042Z,3.03
2019-02-08T12:37:14.240Z,2.22
2019-02-08T12:39:43.602Z,3.20
2019-02-08T12:42:13.864Z,3.20
2019-02-08T12:44:42.748Z,2.67
2019-02-08T12:47:12.796Z,3.35
2019-02-08T12:49:41.057Z,2.90
2019-02-08T12:52:10.939Z,3.40
2019-02-08T12:54:39.712Z,3.05
2019-02-08T12:59:42.788Z,4.25
2019-02-08T13:02:12.158Z,4.03
2019-02-08T13:04:41.699Z,2.93
2019-02-08T13:07:10.416Z,3.50
2019-02-08T13:12:09.348Z,3.00
2019-02-08T13:14:39.532Z,3.20
2019-02-08T13:19:36.902Z,4.05
2019-02-08T13:24:35.730Z,3.90
2019-02-08T13:27:05.343Z,2.80
2019-02-08T13:29:35.659Z,2.90
2019-02-08T13:32:05.401Z,3.53
2019-02-08T13:34:33.842Z,2.65
2019-02-08T13:37:04.115Z,3.60
2019-02-08T13:39:32.880Z,2.70
2019-02-08T13:42:03.668Z,3.05
2019-02-08T13:44:32.833Z,3.00
2019-02-08T13:47:05.000Z,2.70
2019-02-08T13:52:04.073Z,3.00
2019-02-08T13:54:33.800Z,2.90
2019-02-08T13:57:03.777Z,2.90
2019-02-08T14:04:31.761Z,3.30
2019-02-08T14:09:32.147Z,3.30
2019-02-08T14:14:31.753Z,2.60
2019-02-08T14:17:00.920Z,3.13
2019-02-08T14:19:32.030Z,2.90
2019-02-08T14:22:01.679Z,2.20
2019-02-08T14:24:30.751Z,3.23
2019-02-08T14:29:32.714Z,2.97
2019-02-08T14:34:31.961Z,2.30
2019-02-08T14:37:00.961Z,2.27
2019-02-08T14:39:32.338Z,2.40
2019-02-08T14:42:01.389Z,2.80
2019-02-08T14:44:31.081Z,2.53
2019-02-08T14:52:16.007Z,2.30
2019-02-08T14:54:44.867Z,2.70
2019-02-08T14:57:16.662Z,2.40
2019-02-08T14:59:44.698Z,3.25
2019-02-08T15:02:14.375Z,2.55
2019-02-08T15:04:43.057Z,3.70
2019-02-08T15:09:39.770Z,2.20
2019-02-08T15:12:09.052Z,2.60
2019-02-08T15:14:39.319Z,2.60
2019-02-08T15:17:07.774Z,2.60
2019-02-08T15:19:36.595Z,2.80
2019-02-08T15:22:05.832Z,2.80
2019-02-08T15:24:34.478Z,2.50
2019-02-08T15:29:50.180Z,2.30
2019-02-08T15:32:18.849Z,2.40
2019-02-08T15:34:48.793Z,2.20
2019-02-08T15:37:17.778Z,2.50
2019-02-08T15:39:46.710Z,2.30
2019-02-08T15:42:16.196Z,2.50
2019-02-08T15:44:45.612Z,3.40
2019-02-08T15:47:14.926Z,3.30
2019-02-08T15:49:44.848Z,2.40
2019-02-08T15:54:43.728Z,2.90
2019-02-08T15:57:14.411Z,3.50
2019-02-08T16:02:12.632Z,3.55
2019-02-08T16:04:41.625Z,2.80
2019-02-08T16:09:42.833Z,2.50
2019-02-08T16:12:11.670Z,2.75
2019-02-08T16:14:40.946Z,2.90
2019-02-08T16:17:09.047Z,2.40
2019-02-08T16:22:07.362Z,2.95
2019-02-08T16:24:35.695Z,2.60
2019-02-08T16:27:04.530Z,2.70
2019-02-08T16:29:33.834Z,2.50
2019-02-08T16:32:02.659Z,2.35
2019-02-08T16:34:32.657Z,2.90
2019-02-08T16:37:03.600Z,3.00
2019-02-08T16:39:34.837Z,3.03
2019-02-08T16:42:03.961Z,2.45
2019-02-08T16:44:35.668Z,3.65
2019-02-08T16:47:05.764Z,3.50
2019-02-08T16:52:10.316Z,2.45
2019-02-08T16:54:42.545Z,2.70
2019-02-08T16:57:13.683Z,3.55
2019-02-08T16:59:43.744Z,2.90
2019-02-08T17:02:13.685Z,2.27
2019-02-08T17:12:13.827Z,3.60
2019-02-08T17:14:43.659Z,3.90
2019-02-08T17:17:14.563Z,3.70
2019-02-08T17:20:51.332Z,2.45
2019-02-08T17:23:20.870Z,2.60
2019-02-08T17:25:50.473Z,3.60
2019-02-08T17:28:18.671Z,3.30
2019-02-08T17:30:49.906Z,2.25
2019-02-08T17:36:42.680Z,2.97
2019-02-08T17:39:11.930Z,3.40
2019-02-08T17:41:40.857Z,2.83
2019-02-08T17:44:10.798Z,3.30
2019-02-08T17:46:40.635Z,3.73
2019-02-08T17:49:08.571Z,4.10
2019-02-08T17:51:37.183Z,4.40
2019-02-08T17:54:07.008Z,4.60
2019-02-08T17:56:36.661Z,4.20
2019-02-08T18:03:25.736Z,6.45
2019-02-08T18:05:55.715Z,5.90
2019-02-08T18:08:26.069Z,6.40
2019-02-08T18:10:55.615Z,6.40
2019-02-08T18:13:26.605Z,6.60
2019-02-08T18:15:55.631Z,6.67
2019-02-08T18:21:09.956Z,6.70
2019-02-08T18:26:08.740Z,7.25
2019-02-08T18:28:39.818Z,6.80
2019-02-08T18:33:38.063Z,7.85
2019-02-08T18:36:07.623Z,6.65
2019-02-08T18:38:36.412Z,7.30
2019-02-08T18:41:05.644Z,7.00
2019-02-08T18:46:14.537Z,13.40
2019-02-08T18:48:44.908Z,20.40
2019-02-08T18:51:13.691Z,12.20
2019-02-08T18:53:42.958Z,12.10
2019-02-08T18:56:11.751Z,11.20
2019-02-08T18:58:41.149Z,11.10
2019-02-08T19:01:10.069Z,10.00
2019-02-08T19:03:39.850Z,9.20
2019-02-08T19:11:07.638Z,9.10
2019-02-08T19:13:35.998Z,9.75
2019-02-08T19:18:36.810Z,8.40
2019-02-08T19:23:24.167Z,9.50
2019-02-08T19:25:53.651Z,8.70
2019-02-08T19:30:57.822Z,9.20
2019-02-08T19:33:29.803Z,9.20
2019-02-08T19:36:01.629Z,8.55
2019-02-08T19:38:31.558Z,8.10
2019-02-08T19:41:02.654Z,8.55
2019-02-08T19:43:37.005Z,8.10
2019-02-08T19:46:06.170Z,8.50
2019-02-08T19:48:35.109Z,7.95
2019-02-08T19:51:04.804Z,8.40
2019-02-08T19:53:35.406Z,8.00
2019-02-08T19:57:34.783Z,8.45
2019-02-08T20:00:03.679Z,8.35
2019-02-08T20:02:32.021Z,8.30
2019-02-08T20:05:01.949Z,7.50
2019-02-08T20:07:34.543Z,6.80
2019-02-08T20:10:08.023Z,7.20
2019-02-08T20:12:37.639Z,6.40
2019-02-08T20:15:10.352Z,8.70
2019-02-08T20:17:39.755Z,7.40
2019-02-08T20:20:09.033Z,7.50
2019-02-08T20:22:38.079Z,7.50
2019-02-08T20:25:13.302Z,6.70
2019-02-08T20:27:43.627Z,6.77
2019-02-08T20:31:08.535Z,7.25
2019-02-08T20:33:40.675Z,6.60
2019-02-08T20:38:42.392Z,7.40
2019-02-08T20:41:10.871Z,7.00
2019-02-08T20:43:40.360Z,6.85
2019-02-08T20:48:39.276Z,7.60
2019-02-08T20:51:10.774Z,6.60
2019-02-08T20:54:23.647Z,6.40
2019-02-08T20:56:58.760Z,8.00
2019-02-08T20:59:22.973Z,6.83
2019-02-08T21:01:51.591Z,7.17
2019-02-08T21:04:21.612Z,6.90
2019-02-08T21:06:50.101Z,7.05
2019-02-08T21:09:20.578Z,7.40
2019-02-08T21:11:50.006Z,8.00
2019-02-08T21:14:20.731Z,6.40
2019-02-08T21:20:10.836Z,6.30
2019-02-08T21:25:08.941Z,6.85
2019-02-08T21:27:37.060Z,7.00
2019-02-08T21:30:06.675Z,6.80
2019-02-08T21:35:14.612Z,7.10
2019-02-08T21:37:43.702Z,6.50
2019-02-08T21:40:14.655Z,6.60
2019-02-08T21:42:44.318Z,6.30
2019-02-08T21:45:22.352Z,6.75
2019-02-08T21:47:50.642Z,7.10
2019-02-08T21:50:20.663Z,6.90
2019-02-08T21:52:50.625Z,6.90
2019-02-08T21:58:01.868Z,6.13
2019-02-08T22:00:32.818Z,6.00
2019-02-08T22:03:04.673Z,5.55
2019-02-08T22:07:41.379Z,6.70
2019-02-08T22:10:10.887Z,6.40
2019-02-08T22:12:41.018Z,6.60
2019-02-08T22:15:14.622Z,5.90
2019-02-08T22:17:46.592Z,7.30
2019-02-08T22:20:18.049Z,6.93
2019-02-08T22:22:48.917Z,6.10
2019-02-08T22:25:18.703Z,6.50
2019-02-08T22:27:50.723Z,5.90
2019-02-08T22:30:20.873Z,6.80
2019-02-08T22:32:50.736Z,6.00
2019-02-08T22:35:20.767Z,6.07
2019-02-08T22:37:51.164Z,6.30
2019-02-08T22:40:20.775Z,5.90
2019-02-08T22:47:59.359Z,7.30
2019-02-08T22:50:28.310Z,7.60
2019-02-08T22:52:57.886Z,6.50
2019-02-08T22:57:57.027Z,6.90
2019-02-08T23:01:41.795Z,7.40
2019-02-08T23:06:44.538Z,7.25
2019-02-08T23:11:50.555Z,6.90
2019-02-08T23:14:20.338Z,5.60
2019-02-08T23:16:49.083Z,6.30
2019-02-08T23:19:19.664Z,6.05
2019-02-08T23:22:32.877Z,5.95
2019-02-08T23:28:19.846Z,5.40
2019-02-08T23:30:50.801Z,5.90
2019-02-08T23:35:16.029Z,6.30
2019-02-08T23:37:46.282Z,5.17
2019-02-08T23:47:34.174Z,4.80
2019-02-08T23:52:32.801Z,5.80
2019-02-08T23:55:30.689Z,5.63
2019-02-08T23:58:03.746Z,4.70
